Time;durP1;ratioP1;P1;durP2;ratioP2;P2;SDS_P1;SDS_P2;PMS_P1;PMS_P2;Temp;Humidity;BMP_temperature;BMP_pressure;BME280_temperature;BME280_humidity;BME280_pressure;Samples;Min_cycle;Max_cycle;Signal;HPM_P1;HPM_P2
2022/08/22 00:00:23;;;;;;;17.88;11.07;;;15.60;99.90;;;;;;5053802;28;20341;-50
2022/08/22 00:03:31;;;;;;;23.90;12.02;;;15.50;99.90;;;;;;5053927;28;20124;-51
2022/08/22 00:06:14;;;;;;;18.67;10.95;;;15.40;99.90;;;;;;5004537;28;20037;-50
2022/08/22 00:08:51;;;;;;;14.18;10.13;;;15.40;99.90;;;;;;5053529;28;20049;-51
2022/08/22 00:11:38;;;;;;;12.25;10.23;;;15.30;99.90;;;;;;5069595;28;20460;-51
2022/08/22 00:14:21;;;;;;;19.25;9.85;;;15.20;99.90;;;;;;5073574;28;20398;-53
2022/08/22 00:16:52;;;;;;;16.08;10.23;;;15.10;99.90;;;;;;5073615;28;20423;-52
2022/08/22 00:19:45;;;;;;;16.60;10.48;;;15.10;99.90;;;;;;5073562;28;20059;-55
2022/08/22 00:22:27;;;;;;;10.77;9.67;;;15.10;99.90;;;;;;5073309;28;20459;-51
2022/08/22 00:25:09;;;;;;;11.07;9.05;;;15.00;99.90;;;;;;5073001;28;20040;-53
2022/08/22 00:31:01;;;;;;;9.75;8.73;;;14.90;99.90;;;;;;5073331;28;20116;-51
2022/08/22 00:33:41;;;;;;;9.65;8.65;;;14.90;99.90;;;;;;5049561;28;20593;-50
2022/08/22 00:36:24;;;;;;;12.88;9.80;;;14.80;99.90;;;;;;5072942;28;20017;-54
2022/08/22 00:39:00;;;;;;;15.50;10.88;;;14.80;99.90;;;;;;5073110;28;20520;-50
2022/08/22 00:42:03;;;;;;;15.40;9.98;;;14.80;99.90;;;;;;5071390;28;20693;-54
2022/08/22 00:44:53;;;;;;;17.20;9.55;;;14.70;99.90;;;;;;5072653;28;20043;-53
2022/08/22 00:47:35;;;;;;;11.60;9.27;;;14.70;99.90;;;;;;5072721;28;20036;-51
2022/08/22 00:50:00;;;;;;;13.02;9.45;;;14.70;99.90;;;;;;5072719;28;20124;-53
2022/08/22 00:52:51;;;;;;;11.85;9.93;;;14.70;99.90;;;;;;5072613;28;20104;-51
2022/08/22 00:55:36;;;;;;;16.55;9.05;;;14.70;99.90;;;;;;5072172;28;20025;-50
2022/08/22 00:58:10;;;;;;;12.55;9.93;;;14.70;99.90;;;;;;5072579;28;20029;-52
2022/08/22 01:00:47;;;;;;;18.98;9.70;;;14.60;99.90;;;;;;5072698;28;20024;-54
2022/08/22 01:03:38;;;;;;;15.43;9.95;;;14.60;99.90;;;;;;5072512;28;20017;-52
2022/08/22 01:06:15;;;;;;;14.05;9.80;;;14.60;99.90;;;;;;5072497;28;20025;-52
2022/08/22 01:09:08;;;;;;;16.42;10.40;;;14.50;99.90;;;;;;5071027;28;20041;-53
2022/08/22 01:11:50;;;;;;;13.93;10.45;;;14.50;99.90;;;;;;5072218;28;20032;-54
2022/08/22 01:14:34;;;;;;;16.23;10.40;;;14.50;99.90;;;;;;5072205;28;20456;-54
2022/08/22 01:17:25;;;;;;;17.27;10.25;;;14.50;99.90;;;;;;5072355;28;20048;-54
2022/08/22 01:20:35;;;;;;;10.95;8.73;;;14.50;99.90;;;;;;5072282;28;20090;-53
2022/08/22 01:23:38;;;;;;;11.02;9.57;;;14.50;99.90;;;;;;5061102;28;20040;-54
2022/08/22 01:26:24;;;;;;;10.38;9.27;;;14.50;99.90;;;;;;5072210;28;20052;-54
2022/08/22 01:29:32;;;;;;;10.50;9.40;;;14.50;99.90;;;;;;5071945;28;20028;-54
2022/08/22 01:32:19;;;;;;;14.13;9.07;;;14.50;99.90;;;;;;5071672;28;20025;-55
2022/08/22 01:35:06;;;;;;;15.52;8.52;;;14.50;99.90;;;;;;5071994;28;20075;-54
2022/08/22 01:38:09;;;;;;;14.45;9.73;;;14.60;99.90;;;;;;5071941;28;20028;-54
2022/08/22 01:40:48;;;;;;;14.82;9.32;;;14.60;99.90;;;;;;5071789;28;20036;-53
2022/08/22 01:43:42;;;;;;;17.02;8.55;;;14.60;99.90;;;;;;5070302;28;20030;-54
2022/08/22 01:46:11;;;;;;;17.88;10.00;;;14.60;99.90;;;;;;5071514;28;20028;-53
2022/08/22 01:48:52;;;;;;;16.95;9.60;;;14.50;99.90;;;;;;5071297;28;20070;-51
2022/08/22 01:51:23;;;;;;;11.23;9.55;;;14.60;99.90;;;;;;5070312;28;20376;-50
2022/08/22 01:53:58;;;;;;;18.15;10.13;;;14.60;99.90;;;;;;5071674;28;20024;-52
2022/08/22 01:56:25;;;;;;;16.88;9.93;;;14.50;99.90;;;;;;5071074;28;20031;-51
2022/08/22 01:58:54;;;;;;;15.55;10.70;;;14.50;99.90;;;;;;5071522;28;20062;-50
2022/08/22 02:01:50;;;;;;;13.98;9.30;;;14.50;99.90;;;;;;5071554;28;20028;-54
2022/08/22 02:04:34;;;;;;;13.10;10.00;;;14.60;99.90;;;;;;5034419;28;20060;-51
2022/08/22 02:07:03;;;;;;;10.23;9.15;;;14.60;99.90;;;;;;5071393;28;20369;-52
2022/08/22 02:09:41;;;;;;;14.05;9.32;;;14.60;99.90;;;;;;5071282;28;20113;-50
2022/08/22 02:12:24;;;;;;;15.88;8.82;;;14.60;99.90;;;;;;5071421;28;20020;-50
2022/08/22 02:14:56;;;;;;;11.15;8.07;;;14.70;99.90;;;;;;5071410;28;20020;-50
2022/08/22 02:17:24;;;;;;;16.55;8.95;;;14.70;99.90;;;;;;5071075;28;20399;-50
2022/08/22 02:20:08;;;;;;;13.75;9.50;;;14.70;99.90;;;;;;5071476;28;20029;-52
2022/08/22 02:22:41;;;;;;;16.95;8.88;;;14.70;99.90;;;;;;5071518;28;20583;-51
2022/08/22 02:25:22;;;;;;;10.48;8.90;;;14.70;99.90;;;;;;5071333;28;20434;-50
2022/08/22 02:28:08;;;;;;;18.48;9.75;;;14.60;99.90;;;;;;5070200;28;20040;-50
2022/08/22 02:30:53;;;;;;;14.77;9.45;;;14.60;99.90;;;;;;5071314;28;20032;-50
2022/08/22 02:33:41;;;;;;;11.68;9.10;;;14.50;99.90;;;;;;5071174;28;20406;-51
2022/08/22 02:36:39;;;;;;;11.13;8.88;;;14.50;99.90;;;;;;5071325;28;20029;-50
2022/08/22 02:39:26;;;;;;;13.90;8.57;;;14.50;99.90;;;;;;5071175;28;20027;-51
2022/08/22 02:42:05;;;;;;;12.82;8.80;;;14.40;99.90;;;;;;5070041;28;20039;-50
2022/08/22 02:44:36;;;;;;;18.80;8.85;;;14.40;99.90;;;;;;5071251;28;20031;-50
2022/08/22 02:47:14;;;;;;;11.25;8.73;;;14.30;99.90;;;;;;5069993;28;20029;-50
2022/08/22 02:49:45;;;;;;;9.05;8.15;;;14.30;99.90;;;;;;5071246;28;20413;-50
2022/08/22 02:52:23;;;;;;;12.23;8.55;;;14.20;99.90;;;;;;5070921;28;20025;-52
2022/08/22 02:55:02;;;;;;;14.73;8.27;;;14.20;99.90;;;;;;5069611;28;20118;-51
2022/08/22 02:57:43;;;;;;;11.48;8.02;;;14.10;99.90;;;;;;5071015;28;20651;-52
2022/08/22 03:00:15;;;;;;;16.33;8.85;;;14.10;99.90;;;;;;5051982;28;20056;-50
2022/08/22 03:03:03;;;;;;;16.15;9.48;;;14.10;99.90;;;;;;5071043;28;20039;-51
2022/08/22 03:05:35;;;;;;;17.05;9.68;;;14.00;99.90;;;;;;5071014;28;20029;-52
2022/08/22 03:08:15;;;;;;;24.73;10.00;;;14.00;99.90;;;;;;5073384;28;20461;-51
2022/08/22 03:11:12;;;;;;;16.45;9.40;;;14.00;99.90;;;;;;5074352;28;20056;-51
2022/08/22 03:14:12;;;;;;;14.23;9.23;;;14.10;99.90;;;;;;5070568;28;20036;-50
2022/08/22 03:17:01;;;;;;;17.88;8.88;;;14.10;99.90;;;;;;5074690;28;20078;-50
2022/08/22 03:19:43;;;;;;;16.98;8.98;;;14.10;99.90;;;;;;5074527;28;20021;-50
2022/08/22 03:22:15;;;;;;;24.05;10.18;;;14.20;99.90;;;;;;5074218;28;20391;-50
2022/08/22 03:25:20;;;;;;;16.67;9.75;;;14.20;99.90;;;;;;5074630;28;20039;-53
2022/08/22 03:28:05;;;;;;;19.75;9.63;;;14.20;99.90;;;;;;5074550;28;20020;-53
2022/08/22 03:30:43;;;;;;;12.98;9.52;;;14.20;99.90;;;;;;5074482;28;20024;-52
2022/08/22 03:33:19;;;;;;;10.45;9.43;;;14.30;99.90;;;;;;5074191;28;20024;-50
2022/08/22 03:35:45;;;;;;;14.30;9.90;;;14.30;99.90;;;;;;5074371;28;20107;-50
2022/08/22 03:38:22;;;;;;;10.68;8.93;;;14.30;99.90;;;;;;5073915;28;20421;-49
2022/08/22 03:40:57;;;;;;;11.90;9.23;;;14.40;99.90;;;;;;5074309;28;20040;-50
2022/08/22 03:43:37;;;;;;;16.08;8.10;;;14.40;99.90;;;;;;5073883;28;20020;-51
2022/08/22 03:46:21;;;;;;;9.07;8.18;;;14.30;99.90;;;;;;5074061;28;20020;-51
2022/08/22 03:49:31;;;;;;;9.63;8.18;;;14.40;99.90;;;;;;5073831;28;20078;-51
2022/08/22 03:52:11;;;;;;;10.20;8.45;;;14.30;99.90;;;;;;5073736;28;20078;-50
2022/08/22 03:54:58;;;;;;;11.27;9.00;;;14.30;99.90;;;;;;5106406;28;20025;-51
2022/08/22 03:57:27;;;;;;;11.23;9.93;;;14.30;99.90;;;;;;5073801;28;20039;-53
2022/08/22 04:00:28;;;;;;;18.35;9.15;;;14.30;99.90;;;;;;5073782;28;20024;-51
2022/08/22 04:03:22;;;;;;;16.35;10.48;;;14.30;99.90;;;;;;5073986;28;20033;-51
2022/08/22 04:06:16;;;;;;;15.57;9.95;;;14.30;99.90;;;;;;5073791;28;20025;-51
2022/08/22 04:09:22;;;;;;;13.32;8.65;;;14.20;99.90;;;;;;5073393;28;20067;-50
2022/08/22 04:11:48;;;;;;;12.15;9.07;;;14.20;99.90;;;;;;5073500;28;20043;-53
2022/08/22 04:14:23;;;;;;;12.13;9.65;;;14.20;99.90;;;;;;5073545;28;20032;-51
2022/08/22 04:16:57;;;;;;;18.75;9.60;;;14.10;99.90;;;;;;5073519;28;20585;-50
2022/08/22 04:19:42;;;;;;;10.35;9.32;;;14.10;99.90;;;;;;5073039;28;20028;-50
2022/08/22 04:22:45;;;;;;;14.73;10.30;;;14.10;99.90;;;;;;5073071;28;20033;-51
2022/08/22 04:25:24;;;;;;;14.48;9.35;;;14.10;99.90;;;;;;5073316;28;20059;-50
2022/08/22 04:28:05;;;;;;;12.13;8.35;;;14.10;99.90;;;;;;5073284;28;20029;-50
2022/08/22 04:30:38;;;;;;;12.13;8.07;;;14.20;99.90;;;;;;5073244;28;20029;-51
2022/08/22 04:33:58;;;;;;;10.85;9.55;;;14.30;99.90;;;;;;5073302;28;20025;-54
2022/08/22 04:37:03;;;;;;;14.63;8.98;;;14.30;99.90;;;;;;5010266;28;20041;-50
2022/08/22 04:39:50;;;;;;;13.85;10.15;;;14.30;99.90;;;;;;5010681;28;20464;-50
2022/08/22 04:42:26;;;;;;;12.98;10.10;;;14.30;99.90;;;;;;5070870;28;20560;-51
2022/08/22 04:44:58;;;;;;;14.43;9.25;;;14.30;99.90;;;;;;5072911;28;20077;-53
2022/08/22 04:47:30;;;;;;;11.43;9.35;;;14.30;99.90;;;;;;5072655;28;20033;-51
2022/08/22 04:50:05;;;;;;;12.00;9.63;;;14.30;99.90;;;;;;5072959;28;20033;-54
2022/08/22 04:52:38;;;;;;;13.63;8.93;;;14.40;99.90;;;;;;5072694;28;20056;-50
2022/08/22 04:55:41;;;;;;;15.02;9.63;;;14.40;99.90;;;;;;5072756;28;20150;-53
2022/08/22 04:58:36;;;;;;;8.35;7.55;;;14.50;99.90;;;;;;5072157;28;20074;-50
2022/08/22 05:01:16;;;;;;;10.43;8.02;;;14.70;99.90;;;;;;5072664;28;20520;-50
2022/08/22 05:04:05;;;;;;;12.77;8.95;;;14.80;99.90;;;;;;5072378;28;20033;-52
2022/08/22 05:06:35;;;;;;;12.07;8.02;;;14.90;99.90;;;;;;5071001;28;20031;-52
2022/08/22 05:09:11;;;;;;;9.52;8.45;;;14.90;99.90;;;;;;5072518;28;20024;-50
2022/08/22 05:11:40;;;;;;;7.45;6.75;;;15.00;99.90;;;;;;5072489;28;20082;-50
2022/08/22 05:14:48;;;;;;;8.30;7.57;;;15.20;99.90;;;;;;5072016;28;20356;-50
2022/08/22 05:17:20;;;;;;;10.55;7.78;;;15.40;99.90;;;;;;5072275;28;20020;-51
2022/08/22 05:19:50;;;;;;;9.05;8.25;;;15.40;99.90;;;;;;5072170;28;20037;-51
2022/08/22 05:22:27;;;;;;;10.23;8.00;;;15.40;99.90;;;;;;5070630;28;20463;-52
2022/08/22 05:24:58;;;;;;;9.50;8.60;;;15.40;99.90;;;;;;5072204;28;20051;-51
2022/08/22 05:27:30;;;;;;;9.77;7.97;;;15.60;99.90;;;;;;5071956;28;20031;-53
2022/08/22 05:30:04;;;;;;;8.75;7.85;;;15.70;99.90;;;;;;5070043;28;20031;-52
2022/08/22 05:32:39;;;;;;;10.48;7.03;;;15.80;99.90;;;;;;5071940;28;20020;-52
2022/08/22 05:35:08;;;;;;;8.50;7.78;;;16.10;99.90;;;;;;5071985;28;20025;-51
2022/08/22 05:37:41;;;;;;;10.32;8.00;;;16.30;99.90;;;;;;5072040;28;20016;-52
2022/08/22 05:40:13;;;;;;;10.48;7.50;;;16.40;99.90;;;;;;5071826;28;20017;-54
2022/08/22 05:42:40;;;;;;;9.32;7.82;;;16.50;99.90;;;;;;5071806;28;20033;-52
2022/08/22 05:45:07;;;;;;;15.23;9.38;;;16.70;99.90;;;;;;5071784;28;20502;-53
2022/08/22 05:47:38;;;;;;;16.15;8.57;;;16.80;99.90;;;;;;5071614;28;20028;-51
2022/08/22 05:50:14;;;;;;;14.23;8.60;;;16.70;99.90;;;;;;5071640;28;20032;-52
2022/08/22 05:52:44;;;;;;;10.50;8.07;;;16.70;99.90;;;;;;5071776;28;20111;-53
2022/08/22 05:55:42;;;;;;;13.32;8.38;;;16.80;99.90;;;;;;5071654;28;20023;-52
2022/08/22 05:58:40;;;;;;;9.02;8.13;;;16.80;99.90;;;;;;5071507;28;20020;-53
2022/08/22 06:01:26;;;;;;;8.18;7.43;;;17.10;99.90;;;;;;5071514;28;20345;-51
2022/08/22 06:03:57;;;;;;;8.65;7.65;;;17.20;99.90;;;;;;5071320;28;20115;-52
2022/08/22 06:06:25;;;;;;;12.55;7.97;;;17.30;99.90;;;;;;5071298;28;20090;-53
2022/08/22 06:09:07;;;;;;;17.58;7.88;;;17.40;99.90;;;;;;5071353;28;20693;-52
2022/08/22 06:12:03;;;;;;;11.13;8.80;;;17.30;99.90;;;;;;5071497;28;20033;-53
2022/08/22 06:15:02;;;;;;;13.43;8.32;;;17.40;99.90;;;;;;5071038;28;20033;-52
2022/08/22 06:17:43;;;;;;;16.98;7.53;;;17.50;99.90;;;;;;5070850;28;20044;-52
2022/08/22 06:20:15;;;;;;;9.15;7.45;;;17.70;99.90;;;;;;5069879;28;20040;-51
2022/08/22 06:22:51;;;;;;;11.85;8.25;;;17.90;99.90;;;;;;5071543;28;20024;-55
2022/08/22 06:25:23;;;;;;;13.55;8.48;;;18.00;99.90;;;;;;5071305;28;20082;-52
2022/08/22 06:27:51;;;;;;;12.10;7.78;;;18.10;99.90;;;;;;5071526;28;20039;-53
2022/08/22 06:30:18;;;;;;;7.65;6.72;;;18.30;99.90;;;;;;5069802;28;20021;-54
2022/08/22 06:32:52;;;;;;;10.25;7.18;;;18.30;99.90;;;;;;5071139;28;20028;-51
2022/08/22 06:35:23;;;;;;;;;;;18.40;99.90;;;;;;5071556;28;20623;-55
2022/08/22 06:37:52;;;;;;;9.90;6.78;;;18.50;99.90;;;;;;5071304;28;20343;-54
2022/08/22 06:40:18;;;;;;;9.23;6.10;;;18.50;99.90;;;;;;5069721;28;20349;-54
2022/08/22 06:42:49;;;;;;;9.73;7.85;;;18.60;99.90;;;;;;5075011;28;20383;-56
2022/08/22 06:45:15;;;;;;;10.95;6.63;;;18.60;99.90;;;;;;5074975;28;20368;-59
2022/08/22 06:47:46;;;;;;;8.80;6.30;;;18.50;99.90;;;;;;5074957;28;20066;-55
2022/08/22 06:50:28;;;;;;;9.13;6.05;;;18.70;99.90;;;;;;5074638;28;20039;-56
2022/08/22 06:53:07;;;;;;;7.00;5.30;;;19.00;99.90;;;;;;5074850;28;20035;-56
2022/08/22 06:55:37;;;;;;;10.45;6.07;;;19.10;99.90;;;;;;5074868;28;20025;-55
2022/08/22 06:58:14;;;;;;;7.97;5.80;;;19.20;99.90;;;;;;5075043;28;20051;-56
2022/08/22 07:00:41;;;;;;;12.48;6.20;;;19.40;99.90;;;;;;5074580;28;20337;-55
2022/08/22 07:03:07;;;;;;;9.20;5.13;;;19.30;99.90;;;;;;5073508;28;20031;-55
2022/08/22 07:05:40;;;;;;;12.27;5.55;;;19.30;99.90;;;;;;5074826;28;20012;-55
2022/08/22 07:08:18;;;;;;;10.65;5.97;;;19.40;99.90;;;;;;5074304;28;20051;-54
2022/08/22 07:10:54;;;;;;;6.68;5.15;;;19.40;99.90;;;;;;5073702;28;20047;-55
2022/08/22 07:13:23;;;;;;;9.35;4.93;;;19.60;99.90;;;;;;5076910;28;20028;-51
2022/08/22 07:15:55;;;;;;;9.75;4.38;;;19.80;99.90;;;;;;5073953;28;20020;-52
2022/08/22 07:18:23;;;;;;;10.88;5.22;;;20.00;99.90;;;;;;5073877;28;20024;-50
2022/08/22 07:20:53;;;;;;;5.68;5.07;;;20.00;99.90;;;;;;5073791;28;20390;-51
2022/08/22 07:23:30;;;;;;;11.30;5.55;;;19.90;99.90;;;;;;5073614;28;20447;-50
2022/08/22 07:26:11;;;;;;;8.60;4.78;;;19.80;99.90;;;;;;5073951;28;20059;-50
2022/08/22 07:28:58;;;;;;;9.07;4.22;;;19.80;99.90;;;;;;5073755;28;20028;-51
2022/08/22 07:31:36;;;;;;;11.90;4.97;;;19.80;99.90;;;;;;5073698;28;20024;-51
2022/08/22 07:34:26;;;;;;;9.27;5.03;;;19.80;99.90;;;;;;5073739;28;20008;-51
2022/08/22 07:37:24;;;;;;;7.43;3.67;;;19.80;99.90;;;;;;5073776;28;20077;-51
2022/08/22 07:40:04;;;;;;;9.93;3.63;;;19.80;99.90;;;;;;5034741;28;20087;-50
2022/08/22 07:42:41;;;;;;;9.82;4.10;;;19.80;99.90;;;;;;5073726;28;20337;-55
2022/08/22 07:45:14;;;;;;;6.75;3.72;;;19.80;99.90;;;;;;5073442;28;20566;-52
2022/08/22 07:47:51;;;;;;;10.00;3.58;;;19.80;99.90;;;;;;5073569;28;20527;-52
2022/08/22 07:50:23;;;;;;;10.40;4.32;;;19.80;99.90;;;;;;5073148;28;20033;-51
2022/08/22 07:52:50;;;;;;;5.75;3.97;;;19.70;99.90;;;;;;5072599;28;20043;-56
2022/08/22 07:55:22;;;;;;;6.20;3.85;;;19.70;99.90;;;;;;5073164;28;20039;-52
2022/08/22 07:57:55;;;;;;;5.97;3.47;;;19.80;99.90;;;;;;5073337;28;20036;-55
2022/08/22 08:00:22;;;;;;;9.88;3.30;;;19.70;99.90;;;;;;5073155;28;20370;-55
2022/08/22 08:02:51;;;;;;;6.82;3.45;;;19.90;99.90;;;;;;5073412;28;20121;-53
2022/08/22 08:05:20;;;;;;;4.95;3.58;;;20.10;99.70;;;;;;5071873;28;20045;-55
2022/08/22 08:07:46;;;;;;;10.93;4.43;;;20.10;99.70;;;;;;5071717;28;20502;-56
2022/08/22 08:10:18;;;;;;;5.35;3.00;;;20.10;99.90;;;;;;5072880;28;20036;-54
2022/08/22 08:12:50;;;;;;;8.85;3.35;;;20.30;99.90;;;;;;5073565;28;20066;-55
2022/08/22 08:15:22;;;;;;;5.13;3.20;;;20.40;99.90;;;;;;5073322;28;20415;-56
2022/08/22 08:17:55;;;;;;;10.80;3.22;;;20.70;99.90;;;;;;5072451;28;20032;-55
2022/08/22 08:20:23;;;;;;;4.85;3.22;;;20.90;99.50;;;;;;5073409;28;20024;-53
2022/08/22 08:22:50;;;;;;;5.53;2.83;;;21.00;98.00;;;;;;5073418;28;20021;-56
2022/08/22 08:25:21;;;;;;;6.88;3.17;;;20.90;97.40;;;;;;5072815;28;20033;-55
2022/08/22 08:30:42;;;;;;;5.30;2.50;;;20.80;97.30;;;;;;5071566;28;20075;-53
2022/08/22 08:33:13;;;;;;;6.00;3.60;;;21.00;97.50;;;;;;5071901;28;20116;-55
2022/08/22 08:35:42;;;;;;;8.68;2.88;;;20.90;96.20;;;;;;5071804;28;20515;-55
2022/08/22 08:38:14;;;;;;;4.85;2.75;;;20.80;95.90;;;;;;5071308;28;20423;-55
2022/08/22 08:40:51;;;;;;;8.20;3.78;;;21.00;95.50;;;;;;5071355;28;20093;-53
2022/08/22 08:43:49;;;;;;;3.88;2.42;;;21.20;96.90;;;;;;5071935;28;20460;-54
2022/08/22 08:46:27;;;;;;;5.18;2.80;;;21.50;95.00;;;;;;5070335;28;20070;-55
2022/08/22 08:49:22;;;;;;;6.03;2.45;;;21.70;95.00;;;;;;5069963;28;20017;-54
2022/08/22 08:52:12;;;;;;;4.57;2.08;;;22.10;93.20;;;;;;5069724;28;20028;-52
2022/08/22 08:54:54;;;;;;;4.78;3.15;;;22.10;94.20;;;;;;5069918;28;20116;-52
2022/08/22 08:57:57;;;;;;;5.60;2.42;;;22.50;94.60;;;;;;5069469;28;20472;-56
2022/08/22 09:00:41;;;;;;;10.45;2.65;;;22.60;94.30;;;;;;5071221;28;20166;-55
2022/08/22 09:03:55;;;;;;;9.90;3.55;;;23.20;93.70;;;;;;5070601;28;20035;-55
2022/08/22 09:06:44;;;;;;;11.48;2.85;;;23.20;92.90;;;;;;5067239;28;20419;-53
2022/08/22 09:09:38;;;;;;;8.65;2.20;;;23.50;90.00;;;;;;5071069;28;20036;-52
2022/08/22 09:12:07;;;;;;;9.68;2.92;;;23.50;89.90;;;;;;5071108;28;20025;-53
2022/08/22 09:14:41;;;;;;;7.97;3.15;;;23.60;90.10;;;;;;5071032;28;20021;-51
2022/08/22 09:17:16;;;;;;;6.50;3.67;;;23.50;90.20;;;;;;5071041;28;20070;-53
2022/08/22 09:20:13;;;;;;;11.95;3.55;;;22.90;92.20;;;;;;5071108;28;20023;-55
2022/08/22 09:23:16;;;;;;;6.75;3.58;;;22.10;93.00;;;;;;5071115;28;20052;-54
2022/08/22 09:26:04;;;;;;;4.43;2.80;;;22.00;92.10;;;;;;5070921;28;20069;-57
2022/08/22 09:28:54;;;;;;;10.98;3.60;;;22.40;92.20;;;;;;5070787;28;20036;-55
2022/08/22 09:31:32;;;;;;;5.88;3.05;;;22.50;91.50;;;;;;5070841;28;20025;-54
2022/08/22 09:34:11;;;;;;;6.20;2.97;;;23.00;91.70;;;;;;5070741;28;20112;-54
2022/08/22 09:36:45;;;;;;;4.53;2.67;;;23.20;92.00;;;;;;5050745;28;20028;-56
2022/08/22 09:39:23;;;;;;;8.95;3.20;;;22.90;92.60;;;;;;5050502;28;20056;-55
2022/08/22 09:41:57;;;;;;;6.22;3.63;;;22.60;91.30;;;;;;5050517;28;20055;-54
2022/08/22 09:44:44;;;;;;;4.53;3.45;;;22.30;91.70;;;;;;5050786;28;20017;-57
2022/08/22 09:47:22;;;;;;;6.32;3.50;;;22.70;91.00;;;;;;5049547;28;20052;-56
2022/08/22 09:50:11;;;;;;;5.82;3.55;;;22.90;90.50;;;;;;5064863;28;20027;-56
2022/08/22 09:52:48;;;;;;;5.35;3.17;;;22.70;90.40;;;;;;5070578;28;20121;-53
2022/08/22 09:55:20;;;;;;;8.32;3.80;;;23.10;91.10;;;;;;5069007;28;20399;-51
2022/08/22 09:57:51;;;;;;;8.13;3.65;;;23.20;91.30;;;;;;5070133;28;20031;-54
2022/08/22 10:00:30;;;;;;;5.30;3.08;;;23.20;90.70;;;;;;5070121;28;20025;-56
2022/08/22 10:03:28;;;;;;;10.07;3.08;;;23.60;88.20;;;;;;5070468;28;20364;-55
2022/08/22 10:06:01;;;;;;;7.43;3.28;;;24.00;89.20;;;;;;5026605;28;20124;-55
2022/08/22 10:08:47;;;;;;;6.53;3.50;;;23.90;86.70;;;;;;5050936;28;20392;-55
2022/08/22 10:11:33;;;;;;;5.90;3.60;;;23.90;89.40;;;;;;5066229;28;20028;-56
2022/08/22 10:14:19;;;;;;;5.85;3.70;;;23.80;90.70;;;;;;5063836;28;20130;-56
2022/08/22 10:17:01;;;;;;;5.82;3.08;;;23.80;88.20;;;;;;5071109;28;20035;-55
2022/08/22 10:19:45;;;;;;;5.53;3.80;;;24.00;89.90;;;;;;5071384;28;20028;-56
2022/08/22 10:22:35;;;;;;;4.63;3.40;;;23.80;88.70;;;;;;5070050;28;20386;-57
2022/08/22 10:25:17;;;;;;;8.48;3.55;;;23.60;88.20;;;;;;5070218;28;20048;-55
2022/08/22 10:28:15;;;;;;;6.78;2.95;;;23.50;84.60;;;;;;5066485;28;20036;-51
2022/08/22 10:31:26;;;;;;;7.10;3.65;;;23.10;83.70;;;;;;5025946;28;20036;-51
2022/08/22 10:33:52;;;;;;;8.60;3.05;;;23.80;86.00;;;;;;5056657;28;20042;-56
2022/08/22 10:36:35;;;;;;;5.07;2.72;;;23.60;86.00;;;;;;5066997;28;20055;-57
2022/08/22 10:39:04;;;;;;;10.20;3.20;;;23.80;86.50;;;;;;5079867;28;20141;-53
2022/08/22 10:41:54;;;;;;;5.72;3.40;;;23.90;83.80;;;;;;5080139;28;20040;-55
2022/08/22 10:44:34;;;;;;;6.10;3.90;;;23.80;84.30;;;;;;5079754;28;20397;-56
2022/08/22 10:47:13;;;;;;;4.80;3.38;;;23.50;87.40;;;;;;5079031;28;20040;-51
2022/08/22 10:49:55;;;;;;;6.15;3.75;;;23.50;88.30;;;;;;5079922;28;20024;-55
2022/08/22 10:52:21;;;;;;;6.57;4.20;;;23.30;89.60;;;;;;5063248;28;20040;-54
2022/08/22 10:55:09;;;;;;;7.15;4.15;;;23.20;89.30;;;;;;5074682;28;20021;-54
2022/08/22 10:57:47;;;;;;;4.85;3.72;;;23.10;90.20;;;;;;5079454;28;20031;-52
2022/08/22 11:00:41;;;;;;;10.57;4.95;;;22.70;90.70;;;;;;5060616;28;20040;-55
2022/08/22 11:03:40;;;;;;;9.63;5.10;;;22.80;91.10;;;;;;5080255;28;20028;-53
2022/08/22 11:06:16;;;;;;;10.30;5.05;;;22.40;90.70;;;;;;5078488;28;20497;-54
2022/08/22 11:09:06;;;;;;;6.03;3.75;;;22.30;91.70;;;;;;5080431;28;20072;-53
2022/08/22 11:11:47;;;;;;;7.53;4.57;;;22.70;92.50;;;;;;5059534;28;20078;-53
2022/08/22 11:14:50;;;;;;;12.60;5.05;;;22.60;91.00;;;;;;5061775;28;20071;-52
2022/08/22 11:17:28;;;;;;;9.55;5.20;;;22.50;91.40;;;;;;5078048;28;20032;-55
2022/08/22 11:20:13;;;;;;;8.98;4.32;;;22.30;91.40;;;;;;5060276;28;20380;-52
2022/08/22 11:23:09;;;;;;;6.90;4.25;;;22.50;92.40;;;;;;5059198;28;20037;-55
2022/08/22 11:25:47;;;;;;;5.97;3.80;;;22.40;92.30;;;;;;5062102;28;20495;-53
2022/08/22 11:28:48;;;;;;;10.85;3.53;;;22.00;92.00;;;;;;5081767;28;20044;-53
2022/08/22 11:31:21;;;;;;;13.88;3.92;;;21.90;92.30;;;;;;5084209;28;20107;-53
2022/08/22 11:34:12;;;;;;;5.50;3.40;;;22.10;93.80;;;;;;5083537;28;20039;-54
2022/08/22 11:36:50;;;;;;;7.57;3.30;;;22.10;92.10;;;;;;5069916;28;20339;-54
2022/08/22 11:39:46;;;;;;;21.10;4.35;;;22.10;92.10;;;;;;5067439;28;20032;-55
2022/08/22 11:42:37;;;;;;;8.40;3.78;;;21.70;91.80;;;;;;5062527;28;20037;-52
2022/08/22 11:45:06;;;;;;;7.70;3.10;;;21.50;91.60;;;;;;5062845;28;20028;-53
2022/08/22 11:47:49;;;;;;;5.93;3.40;;;21.70;92.40;;;;;;5062672;28;20086;-54
2022/08/22 11:50:34;;;;;;;5.80;2.80;;;21.90;92.20;;;;;;5062599;28;20039;-51
2022/08/22 11:53:06;;;;;;;8.25;2.70;;;22.10;91.80;;;;;;5062276;28;20036;-54
2022/08/22 11:56:19;;;;;;;5.18;2.50;;;22.40;91.40;;;;;;5062575;28;20090;-54
2022/08/22 11:59:16;;;;;;;10.13;3.67;;;22.00;91.70;;;;;;5062992;28;20040;-55
2022/08/22 12:01:53;;;;;;;6.35;2.42;;;22.10;91.40;;;;;;5081379;28;20062;-53
2022/08/22 12:04:32;;;;;;;7.88;2.58;;;21.60;90.90;;;;;;5062339;28;20063;-52
2022/08/22 12:07:09;;;;;;;5.18;2.63;;;21.80;91.50;;;;;;5076359;28;20123;-55
2022/08/22 12:09:50;;;;;;;8.52;3.13;;;21.80;91.40;;;;;;5092819;28;20413;-52
2022/08/22 12:12:37;;;;;;;6.50;3.38;;;21.90;91.00;;;;;;5093206;28;20020;-54
2022/08/22 12:15:08;;;;;;;5.38;2.47;;;21.80;91.70;;;;;;5093128;28;20078;-54
2022/08/22 12:17:48;;;;;;;4.97;2.75;;;21.80;91.30;;;;;;5077488;28;20028;-52
2022/08/22 12:20:45;;;;;;;4.60;2.50;;;22.00;90.20;;;;;;5073034;28;20103;-54
2022/08/22 12:23:48;;;;;;;4.03;2.97;;;21.90;91.40;;;;;;5073219;28;20036;-51
2022/08/22 12:26:47;;;;;;;9.68;3.42;;;21.80;90.40;;;;;;5072999;28;20563;-51
2022/08/22 12:29:47;;;;;;;6.85;3.05;;;21.50;91.00;;;;;;5072863;28;20056;-52
2022/08/22 12:32:35;;;;;;;7.57;2.40;;;21.50;91.50;;;;;;5061908;28;20039;-52
2022/08/22 12:35:15;;;;;;;10.73;2.58;;;21.40;90.80;;;;;;5072945;28;20016;-54
2022/08/22 12:38:06;;;;;;;5.05;3.13;;;21.50;91.30;;;;;;5072025;28;20035;-56
2022/08/22 12:41:06;;;;;;;5.60;2.58;;;21.50;91.50;;;;;;5072446;28;20489;-53
2022/08/22 12:43:54;;;;;;;8.00;2.78;;;21.60;90.80;;;;;;5072718;28;20375;-51
2022/08/22 12:46:38;;;;;;;4.85;2.78;;;21.70;91.50;;;;;;5060831;28;20037;-54
2022/08/22 12:49:37;;;;;;;5.80;2.60;;;21.90;90.80;;;;;;5072079;28;20134;-55
2022/08/22 12:52:17;;;;;;;6.75;2.75;;;22.00;90.30;;;;;;5052869;28;20448;-56
2022/08/22 12:55:07;;;;;;;5.03;2.28;;;21.80;88.90;;;;;;5071010;28;20161;-59
2022/08/22 12:58:07;;;;;;;8.52;2.80;;;21.90;89.80;;;;;;5070725;28;20459;-55
2022/08/22 13:00:42;;;;;;;4.65;2.35;;;22.10;90.40;;;;;;5065311;28;20418;-52
2022/08/22 13:03:40;;;;;;;7.55;3.35;;;22.00;89.00;;;;;;5071008;28;20024;-57
2022/08/22 13:06:34;;;;;;;7.35;2.70;;;21.60;90.50;;;;;;5070366;28;20086;-57
2022/08/22 13:09:35;;;;;;;5.00;2.10;;;21.60;90.50;;;;;;5071250;28;20029;-52
2022/08/22 13:12:22;;;;;;;5.65;2.60;;;21.80;90.30;;;;;;5028876;28;20080;-53
2022/08/22 13:14:52;;;;;;;4.38;2.38;;;22.20;90.60;;;;;;5064914;28;20033;-53
2022/08/22 13:17:20;;;;;;;6.63;2.67;;;22.20;90.40;;;;;;5071724;28;20090;-54
2022/08/22 13:20:10;;;;;;;3.15;1.50;;;22.70;90.10;;;;;;5071887;28;20033;-53
2022/08/22 13:22:40;;;;;;;4.28;2.15;;;23.00;86.00;;;;;;5071438;28;20095;-55
2022/08/22 13:25:24;;;;;;;6.93;2.38;;;23.10;88.50;;;;;;5068115;28;20021;-56
2022/08/22 13:27:56;;;;;;;5.88;2.85;;;22.90;86.50;;;;;;5071758;28;20066;-54
2022/08/22 13:30:36;;;;;;;5.10;2.75;;;22.70;90.00;;;;;;5070330;28;20130;-52
2022/08/22 13:33:08;;;;;;;6.40;2.72;;;23.10;89.10;;;;;;5070805;28;20050;-52
2022/08/22 13:35:48;;;;;;;5.43;2.22;;;23.20;87.30;;;;;;5070783;28;20016;-55
2022/08/22 13:38:26;;;;;;;4.10;2.22;;;23.00;86.30;;;;;;5070524;28;20044;-51
2022/08/22 13:40:53;;;;;;;5.13;2.75;;;23.40;90.60;;;;;;5070756;28;20032;-52
2022/08/22 13:43:33;;;;;;;8.98;2.28;;;23.30;87.00;;;;;;5070345;28;20047;-52
2022/08/22 13:46:03;;;;;;;4.95;1.98;;;23.50;86.20;;;;;;5069908;28;20031;-55
2022/08/22 13:48:51;;;;;;;6.63;2.17;;;23.30;84.80;;;;;;5069217;28;20043;-51
2022/08/22 13:51:25;;;;;;;4.82;2.60;;;23.50;86.10;;;;;;5068601;28;20044;-55
2022/08/22 13:54:18;;;;;;;4.70;1.80;;;24.00;86.40;;;;;;5069543;28;20024;-52
2022/08/22 13:56:51;;;;;;;7.63;2.50;;;24.00;85.60;;;;;;5068233;28;20467;-55
2022/08/22 14:00:07;;;;;;;10.40;2.13;;;23.60;83.50;;;;;;5069096;28;20051;-54